sensor_id;sensor_type;location;lat;lon;timestamp;temperature;humidity
74809;DHT22;63338;39.544;2.596;2022-09-17T00:00:12;27.50;57.60
74809;DHT22;63338;39.544;2.596;2022-09-17T00:02:38;27.50;57.50
74809;DHT22;63338;39.544;2.596;2022-09-17T00:05:04;27.50;57.60
74809;DHT22;63338;39.544;2.596;2022-09-17T00:07:31;27.50;57.50
74809;DHT22;63338;39.544;2.596;2022-09-17T00:09:57;27.40;57.70
74809;DHT22;63338;39.544;2.596;2022-09-17T00:12:23;27.50;57.70
74809;DHT22;63338;39.544;2.596;2022-09-17T00:14:49;27.40;57.70
74809;DHT22;63338;39.544;2.596;2022-09-17T00:17:16;27.50;57.80
74809;DHT22;63338;39.544;2.596;2022-09-17T00:19:42;27.30;57.90
74809;DHT22;63338;39.544;2.596;2022-09-17T00:22:08;27.40;57.80
74809;DHT22;63338;39.544;2.596;2022-09-17T00:24:34;27.30;57.70
74809;DHT22;63338;39.544;2.596;2022-09-17T00:27:00;27.40;57.70
74809;DHT22;63338;39.544;2.596;2022-09-17T00:29:26;27.30;57.90
74809;DHT22;63338;39.544;2.596;2022-09-17T00:31:52;27.30;57.90
74809;DHT22;63338;39.544;2.596;2022-09-17T00:34:18;27.20;58.00
74809;DHT22;63338;39.544;2.596;2022-09-17T00:36:44;27.20;58.00
74809;DHT22;63338;39.544;2.596;2022-09-17T00:39:11;27.20;58.00
74809;DHT22;63338;39.544;2.596;2022-09-17T00:41:38;27.30;58.00
74809;DHT22;63338;39.544;2.596;2022-09-17T00:47:15;27.20;58.00
74809;DHT22;63338;39.544;2.596;2022-09-17T00:49:42;27.20;58.30
74809;DHT22;63338;39.544;2.596;2022-09-17T00:52:12;27.20;58.10
74809;DHT22;63338;39.544;2.596;2022-09-17T00:54:42;27.10;58.10
74809;DHT22;63338;39.544;2.596;2022-09-17T00:57:09;27.20;58.10
74809;DHT22;63338;39.544;2.596;2022-09-17T00:59:36;27.10;58.40
74809;DHT22;63338;39.544;2.596;2022-09-17T01:02:03;27.10;58.20
74809;DHT22;63338;39.544;2.596;2022-09-17T01:04:30;27.10;58.20
74809;DHT22;63338;39.544;2.596;2022-09-17T01:07:34;27.10;58.30
74809;DHT22;63338;39.544;2.596;2022-09-17T01:10:53;27.10;58.30
74809;DHT22;63338;39.544;2.596;2022-09-17T01:17:39;27.00;58.40
74809;DHT22;63338;39.544;2.596;2022-09-17T01:22:54;27.00;58.30
74809;DHT22;63338;39.544;2.596;2022-09-17T01:25:41;26.90;58.70
74809;DHT22;63338;39.544;2.596;2022-09-17T01:28:30;26.90;58.60
74809;DHT22;63338;39.544;2.596;2022-09-17T01:37:03;26.90;58.60
74809;DHT22;63338;39.544;2.596;2022-09-17T01:39:56;26.90;58.70
74809;DHT22;63338;39.544;2.596;2022-09-17T01:42:38;26.90;58.40
74809;DHT22;63338;39.544;2.596;2022-09-17T01:48:19;26.90;58.70
74809;DHT22;63338;39.544;2.596;2022-09-17T01:50:52;26.80;58.70
74809;DHT22;63338;39.544;2.596;2022-09-17T01:53:24;26.80;58.70
74809;DHT22;63338;39.544;2.596;2022-09-17T01:55:55;26.80;58.80
74809;DHT22;63338;39.544;2.596;2022-09-17T01:58:27;26.80;58.80
74809;DHT22;63338;39.544;2.596;2022-09-17T02:01:01;26.80;58.90
74809;DHT22;63338;39.544;2.596;2022-09-17T02:03:48;26.70;58.80
74809;DHT22;63338;39.544;2.596;2022-09-17T02:06:22;26.80;58.90
74809;DHT22;63338;39.544;2.596;2022-09-17T02:11:34;26.70;58.80
74809;DHT22;63338;39.544;2.596;2022-09-17T02:14:09;26.70;58.80
74809;DHT22;63338;39.544;2.596;2022-09-17T02:16:42;26.70;58.80
74809;DHT22;63338;39.544;2.596;2022-09-17T02:30:13;26.70;58.80
74809;DHT22;63338;39.544;2.596;2022-09-17T02:32:39;26.60;58.90
74809;DHT22;63338;39.544;2.596;2022-09-17T02:35:09;26.60;59.00
74809;DHT22;63338;39.544;2.596;2022-09-17T02:37:35;26.70;59.10
74809;DHT22;63338;39.544;2.596;2022-09-17T02:40:01;26.70;59.00
74809;DHT22;63338;39.544;2.596;2022-09-17T02:43:13;26.70;59.10
74809;DHT22;63338;39.544;2.596;2022-09-17T03:02:31;26.60;59.20
74809;DHT22;63338;39.544;2.596;2022-09-17T03:05:00;26.60;59.30
74809;DHT22;63338;39.544;2.596;2022-09-17T03:07:26;26.50;59.20
74809;DHT22;63338;39.544;2.596;2022-09-17T03:09:53;26.60;59.20
74809;DHT22;63338;39.544;2.596;2022-09-17T03:12:20;26.60;59.20
74809;DHT22;63338;39.544;2.596;2022-09-17T03:14:49;26.50;59.40
74809;DHT22;63338;39.544;2.596;2022-09-17T03:17:15;26.50;59.20
74809;DHT22;63338;39.544;2.596;2022-09-17T03:19:41;26.50;59.30
74809;DHT22;63338;39.544;2.596;2022-09-17T03:22:07;26.50;59.30
74809;DHT22;63338;39.544;2.596;2022-09-17T03:24:33;26.50;59.30
74809;DHT22;63338;39.544;2.596;2022-09-17T03:26:59;26.50;59.40
74809;DHT22;63338;39.544;2.596;2022-09-17T03:29:25;26.50;59.40
74809;DHT22;63338;39.544;2.596;2022-09-17T03:31:51;26.50;59.40
74809;DHT22;63338;39.544;2.596;2022-09-17T03:34:17;26.50;59.40
74809;DHT22;63338;39.544;2.596;2022-09-17T03:36:44;26.50;59.20
74809;DHT22;63338;39.544;2.596;2022-09-17T03:39:10;26.50;59.30
74809;DHT22;63338;39.544;2.596;2022-09-17T03:41:36;26.50;59.30
74809;DHT22;63338;39.544;2.596;2022-09-17T03:44:02;26.50;59.40
74809;DHT22;63338;39.544;2.596;2022-09-17T03:46:28;26.50;59.40
74809;DHT22;63338;39.544;2.596;2022-09-17T03:48:55;26.60;59.40
74809;DHT22;63338;39.544;2.596;2022-09-17T03:51:21;26.60;59.40
74809;DHT22;63338;39.544;2.596;2022-09-17T03:53:47;26.60;59.10
74809;DHT22;63338;39.544;2.596;2022-09-17T03:56:13;26.60;59.30
74809;DHT22;63338;39.544;2.596;2022-09-17T03:58:39;26.60;59.40
74809;DHT22;63338;39.544;2.596;2022-09-17T04:01:05;26.60;59.10
74809;DHT22;63338;39.544;2.596;2022-09-17T04:03:31;26.50;59.20
74809;DHT22;63338;39.544;2.596;2022-09-17T04:05:57;26.60;59.10
74809;DHT22;63338;39.544;2.596;2022-09-17T04:08:24;26.70;59.10
74809;DHT22;63338;39.544;2.596;2022-09-17T04:10:50;26.60;59.10
74809;DHT22;63338;39.544;2.596;2022-09-17T04:13:17;26.60;59.10
74809;DHT22;63338;39.544;2.596;2022-09-17T04:15:44;26.60;59.00
74809;DHT22;63338;39.544;2.596;2022-09-17T04:18:11;26.60;59.10
74809;DHT22;63338;39.544;2.596;2022-09-17T04:20:37;26.70;59.10
74809;DHT22;63338;39.544;2.596;2022-09-17T04:23:03;26.60;59.10
74809;DHT22;63338;39.544;2.596;2022-09-17T04:25:29;26.60;59.20
74809;DHT22;63338;39.544;2.596;2022-09-17T04:27:55;26.60;59.10
74809;DHT22;63338;39.544;2.596;2022-09-17T04:30:21;26.60;59.10
74809;DHT22;63338;39.544;2.596;2022-09-17T04:32:47;26.60;59.20
74809;DHT22;63338;39.544;2.596;2022-09-17T04:35:14;26.60;59.20
74809;DHT22;63338;39.544;2.596;2022-09-17T04:37:40;26.60;59.10
74809;DHT22;63338;39.544;2.596;2022-09-17T04:40:07;26.60;59.20
74809;DHT22;63338;39.544;2.596;2022-09-17T04:42:33;26.50;59.20
74809;DHT22;63338;39.544;2.596;2022-09-17T04:44:59;26.50;59.40
74809;DHT22;63338;39.544;2.596;2022-09-17T04:47:25;26.60;59.30
74809;DHT22;63338;39.544;2.596;2022-09-17T04:49:51;26.50;59.30
74809;DHT22;63338;39.544;2.596;2022-09-17T04:52:17;26.50;59.40
74809;DHT22;63338;39.544;2.596;2022-09-17T04:54:43;26.50;59.40
74809;DHT22;63338;39.544;2.596;2022-09-17T04:57:10;26.50;59.40
74809;DHT22;63338;39.544;2.596;2022-09-17T04:59:36;26.50;59.50
74809;DHT22;63338;39.544;2.596;2022-09-17T05:02:02;26.50;59.40
74809;DHT22;63338;39.544;2.596;2022-09-17T05:04:27;26.40;59.60
74809;DHT22;63338;39.544;2.596;2022-09-17T05:06:53;26.50;59.50
74809;DHT22;63338;39.544;2.596;2022-09-17T05:09:19;26.50;59.60
74809;DHT22;63338;39.544;2.596;2022-09-17T05:11:45;26.50;59.70
74809;DHT22;63338;39.544;2.596;2022-09-17T05:14:11;26.40;59.70
74809;DHT22;63338;39.544;2.596;2022-09-17T05:16:38;26.50;59.90
74809;DHT22;63338;39.544;2.596;2022-09-17T05:19:04;26.40;59.70
74809;DHT22;63338;39.544;2.596;2022-09-17T05:21:30;26.30;60.30
74809;DHT22;63338;39.544;2.596;2022-09-17T05:23:56;26.30;60.30
74809;DHT22;63338;39.544;2.596;2022-09-17T05:26:22;26.40;59.80
74809;DHT22;63338;39.544;2.596;2022-09-17T05:28:48;26.40;59.70
74809;DHT22;63338;39.544;2.596;2022-09-17T05:31:14;26.40;60.00
74809;DHT22;63338;39.544;2.596;2022-09-17T05:33:40;26.40;59.80
74809;DHT22;63338;39.544;2.596;2022-09-17T05:36:07;26.30;60.60
74809;DHT22;63338;39.544;2.596;2022-09-17T05:38:33;26.40;60.00
74809;DHT22;63338;39.544;2.596;2022-09-17T05:41:03;26.30;60.70
74809;DHT22;63338;39.544;2.596;2022-09-17T05:43:29;26.40;60.00
74809;DHT22;63338;39.544;2.596;2022-09-17T05:46:03;26.40;60.00
74809;DHT22;63338;39.544;2.596;2022-09-17T05:48:29;26.30;60.70
74809;DHT22;63338;39.544;2.596;2022-09-17T05:50:55;26.30;60.70
74809;DHT22;63338;39.544;2.596;2022-09-17T05:53:21;26.40;60.10
74809;DHT22;63338;39.544;2.596;2022-09-17T05:55:47;26.30;60.70
74809;DHT22;63338;39.544;2.596;2022-09-17T05:58:15;26.30;60.80
74809;DHT22;63338;39.544;2.596;2022-09-17T06:00:42;26.30;61.00
74809;DHT22;63338;39.544;2.596;2022-09-17T06:03:13;26.40;60.50
74809;DHT22;63338;39.544;2.596;2022-09-17T06:05:39;26.40;60.50
74809;DHT22;63338;39.544;2.596;2022-09-17T06:08:06;26.40;60.50
74809;DHT22;63338;39.544;2.596;2022-09-17T06:10:35;26.40;60.60
74809;DHT22;63338;39.544;2.596;2022-09-17T06:13:02;26.50;60.50
74809;DHT22;63338;39.544;2.596;2022-09-17T06:15:28;26.60;60.60
74809;DHT22;63338;39.544;2.596;2022-09-17T06:17:54;26.80;60.30
74809;DHT22;63338;39.544;2.596;2022-09-17T06:20:21;26.80;60.30
74809;DHT22;63338;39.544;2.596;2022-09-17T06:22:47;27.00;60.00
74809;DHT22;63338;39.544;2.596;2022-09-17T06:25:13;27.20;59.80
74809;DHT22;63338;39.544;2.596;2022-09-17T06:27:39;27.30;59.50
74809;DHT22;63338;39.544;2.596;2022-09-17T06:30:06;27.50;59.20
74809;DHT22;63338;39.544;2.596;2022-09-17T06:32:32;27.60;59.00
74809;DHT22;63338;39.544;2.596;2022-09-17T06:34:58;27.70;58.70
74809;DHT22;63338;39.544;2.596;2022-09-17T06:37:28;27.90;58.30
74809;DHT22;63338;39.544;2.596;2022-09-17T06:39:54;27.90;58.00
74809;DHT22;63338;39.544;2.596;2022-09-17T06:42:20;28.10;57.60
74809;DHT22;63338;39.544;2.596;2022-09-17T06:44:46;28.20;57.50
74809;DHT22;63338;39.544;2.596;2022-09-17T06:47:12;28.20;57.50
74809;DHT22;63338;39.544;2.596;2022-09-17T06:49:39;28.20;57.40
74809;DHT22;63338;39.544;2.596;2022-09-17T06:52:05;28.30;57.70
74809;DHT22;63338;39.544;2.596;2022-09-17T06:54:31;28.40;57.70
74809;DHT22;63338;39.544;2.596;2022-09-17T06:56:57;28.40;57.40
74809;DHT22;63338;39.544;2.596;2022-09-17T06:59:24;28.60;57.30
74809;DHT22;63338;39.544;2.596;2022-09-17T07:01:51;28.70;57.00
74809;DHT22;63338;39.544;2.596;2022-09-17T07:04:17;28.90;56.70
74809;DHT22;63338;39.544;2.596;2022-09-17T07:06:43;29.00;56.60
74809;DHT22;63338;39.544;2.596;2022-09-17T07:09:10;29.20;55.70
74809;DHT22;63338;39.544;2.596;2022-09-17T07:11:37;29.40;55.40
74809;DHT22;63338;39.544;2.596;2022-09-17T07:14:04;29.70;55.00
74809;DHT22;63338;39.544;2.596;2022-09-17T07:16:31;30.00;54.80
74809;DHT22;63338;39.544;2.596;2022-09-17T07:19:04;30.20;54.50
74809;DHT22;63338;39.544;2.596;2022-09-17T07:21:30;30.40;54.30
74809;DHT22;63338;39.544;2.596;2022-09-17T07:23:57;30.50;54.30
74809;DHT22;63338;39.544;2.596;2022-09-17T07:26:23;30.50;54.10
74809;DHT22;63338;39.544;2.596;2022-09-17T07:28:49;30.50;53.90
74809;DHT22;63338;39.544;2.596;2022-09-17T07:31:16;30.50;53.90
74809;DHT22;63338;39.544;2.596;2022-09-17T07:33:42;30.50;53.80
74809;DHT22;63338;39.544;2.596;2022-09-17T07:36:13;30.80;53.60
74809;DHT22;63338;39.544;2.596;2022-09-17T07:38:40;31.00;53.20
74809;DHT22;63338;39.544;2.596;2022-09-17T07:41:11;31.10;52.90
74809;DHT22;63338;39.544;2.596;2022-09-17T07:43:38;31.10;52.40
74809;DHT22;63338;39.544;2.596;2022-09-17T07:46:05;31.20;52.60
74809;DHT22;63338;39.544;2.596;2022-09-17T07:48:31;31.30;52.30
74809;DHT22;63338;39.544;2.596;2022-09-17T07:50:58;31.40;52.40
74809;DHT22;63338;39.544;2.596;2022-09-17T07:53:24;31.30;52.00
74809;DHT22;63338;39.544;2.596;2022-09-17T07:55:55;31.50;51.20
74809;DHT22;63338;39.544;2.596;2022-09-17T07:58:22;31.60;50.80
74809;DHT22;63338;39.544;2.596;2022-09-17T08:00:49;31.80;50.50
74809;DHT22;63338;39.544;2.596;2022-09-17T08:03:15;32.00;49.20
74809;DHT22;63338;39.544;2.596;2022-09-17T08:05:41;32.10;48.80
74809;DHT22;63338;39.544;2.596;2022-09-17T08:08:07;32.10;49.00
74809;DHT22;63338;39.544;2.596;2022-09-17T08:10:34;32.20;48.90
74809;DHT22;63338;39.544;2.596;2022-09-17T08:13:00;32.20;48.90
74809;DHT22;63338;39.544;2.596;2022-09-17T08:15:26;32.40;48.70
74809;DHT22;63338;39.544;2.596;2022-09-17T08:17:53;32.40;48.50
74809;DHT22;63338;39.544;2.596;2022-09-17T08:20:19;32.60;48.50
74809;DHT22;63338;39.544;2.596;2022-09-17T08:22:45;32.60;48.20
74809;DHT22;63338;39.544;2.596;2022-09-17T08:25:11;32.90;48.10
74809;DHT22;63338;39.544;2.596;2022-09-17T08:27:37;33.00;47.80
74809;DHT22;63338;39.544;2.596;2022-09-17T08:30:05;33.20;47.50
74809;DHT22;63338;39.544;2.596;2022-09-17T08:32:31;33.40;47.40
74809;DHT22;63338;39.544;2.596;2022-09-17T08:34:57;33.50;47.20
74809;DHT22;63338;39.544;2.596;2022-09-17T08:37:26;33.60;47.00
74809;DHT22;63338;39.544;2.596;2022-09-17T08:39:54;33.80;46.70
74809;DHT22;63338;39.544;2.596;2022-09-17T08:44:53;34.00;46.20
74809;DHT22;63338;39.544;2.596;2022-09-17T08:48:00;34.20;46.20
74809;DHT22;63338;39.544;2.596;2022-09-17T08:50:28;34.30;45.60
74809;DHT22;63338;39.544;2.596;2022-09-17T08:55:48;34.70;44.40
74809;DHT22;63338;39.544;2.596;2022-09-17T09:00:54;34.80;44.30
74809;DHT22;63338;39.544;2.596;2022-09-17T09:05:54;35.00;43.90
74809;DHT22;63338;39.544;2.596;2022-09-17T09:08:30;35.00;43.70
74809;DHT22;63338;39.544;2.596;2022-09-17T09:11:01;35.20;43.60
74809;DHT22;63338;39.544;2.596;2022-09-17T09:13:35;35.20;43.50
74809;DHT22;63338;39.544;2.596;2022-09-17T09:16:27;35.30;43.10
74809;DHT22;63338;39.544;2.596;2022-09-17T09:19:00;35.30;43.30
74809;DHT22;63338;39.544;2.596;2022-09-17T09:21:43;35.30;42.90
74809;DHT22;63338;39.544;2.596;2022-09-17T09:24:24;35.40;42.90
74809;DHT22;63338;39.544;2.596;2022-09-17T09:30:19;35.20;42.90
74809;DHT22;63338;39.544;2.596;2022-09-17T09:35:33;34.90;43.00
74809;DHT22;63338;39.544;2.596;2022-09-17T09:54:30;34.00;44.90
74809;DHT22;63338;39.544;2.596;2022-09-17T09:57:04;34.00;44.90
74809;DHT22;63338;39.544;2.596;2022-09-17T09:59:32;33.90;45.10
74809;DHT22;63338;39.544;2.596;2022-09-17T10:02:01;33.90;45.10
74809;DHT22;63338;39.544;2.596;2022-09-17T10:04:28;34.00;45.00
74809;DHT22;63338;39.544;2.596;2022-09-17T10:07:09;34.20;44.90
74809;DHT22;63338;39.544;2.596;2022-09-17T10:09:37;34.30;44.90
74809;DHT22;63338;39.544;2.596;2022-09-17T10:14:38;34.70;43.70
74809;DHT22;63338;39.544;2.596;2022-09-17T10:17:24;34.70;44.00
74809;DHT22;63338;39.544;2.596;2022-09-17T10:25:03;35.00;43.60
74809;DHT22;63338;39.544;2.596;2022-09-17T10:27:31;35.00;43.60
74809;DHT22;63338;39.544;2.596;2022-09-17T10:30:16;35.00;43.70
74809;DHT22;63338;39.544;2.596;2022-09-17T10:32:42;35.10;43.80
74809;DHT22;63338;39.544;2.596;2022-09-17T10:42:49;34.90;43.80
74809;DHT22;63338;39.544;2.596;2022-09-17T10:45:26;34.90;43.40
74809;DHT22;63338;39.544;2.596;2022-09-17T10:47:52;34.80;43.50
74809;DHT22;63338;39.544;2.596;2022-09-17T10:50:23;34.70;43.70
74809;DHT22;63338;39.544;2.596;2022-09-17T10:52:53;34.70;43.50
74809;DHT22;63338;39.544;2.596;2022-09-17T11:09:39;34.70;43.20
74809;DHT22;63338;39.544;2.596;2022-09-17T11:30:17;34.60;43.30
74809;DHT22;63338;39.544;2.596;2022-09-17T11:35:50;34.50;44.30
74809;DHT22;63338;39.544;2.596;2022-09-17T11:39:03;34.50;44.20
74809;DHT22;63338;39.544;2.596;2022-09-17T11:41:22;34.50;44.40
74809;DHT22;63338;39.544;2.596;2022-09-17T11:44:35;34.40;44.30
74809;DHT22;63338;39.544;2.596;2022-09-17T11:50:16;34.30;44.20
74809;DHT22;63338;39.544;2.596;2022-09-17T11:55:55;34.10;44.50
74809;DHT22;63338;39.544;2.596;2022-09-17T11:58:39;34.10;44.20
74809;DHT22;63338;39.544;2.596;2022-09-17T12:01:34;33.90;44.40
74809;DHT22;63338;39.544;2.596;2022-09-17T12:04:08;33.80;44.80
74809;DHT22;63338;39.544;2.596;2022-09-17T12:06:43;33.70;44.90
74809;DHT22;63338;39.544;2.596;2022-09-17T12:09:16;33.60;45.10
74809;DHT22;63338;39.544;2.596;2022-09-17T12:14:21;33.30;45.40
74809;DHT22;63338;39.544;2.596;2022-09-17T12:16:52;33.30;45.40
74809;DHT22;63338;39.544;2.596;2022-09-17T12:19:27;33.10;45.70
74809;DHT22;63338;39.544;2.596;2022-09-17T12:22:11;33.00;46.20
74809;DHT22;63338;39.544;2.596;2022-09-17T12:24:40;32.90;46.50
74809;DHT22;63338;39.544;2.596;2022-09-17T12:30:14;32.70;47.00
74809;DHT22;63338;39.544;2.596;2022-09-17T12:33:06;32.60;47.50
74809;DHT22;63338;39.544;2.596;2022-09-17T12:38:57;32.50;47.80
74809;DHT22;63338;39.544;2.596;2022-09-17T12:52:41;32.70;48.10
74809;DHT22;63338;39.544;2.596;2022-09-17T12:55:34;32.80;48.30
74809;DHT22;63338;39.544;2.596;2022-09-17T13:03:38;33.10;48.90
74809;DHT22;63338;39.544;2.596;2022-09-17T13:17:08;33.40;48.80
74809;DHT22;63338;39.544;2.596;2022-09-17T13:22:28;33.50;48.50
74809;DHT22;63338;39.544;2.596;2022-09-17T13:25:07;33.50;48.70
74809;DHT22;63338;39.544;2.596;2022-09-17T13:27:34;33.70;48.50
74809;DHT22;63338;39.544;2.596;2022-09-17T13:30:03;33.70;48.60
74809;DHT22;63338;39.544;2.596;2022-09-17T13:37:44;33.80;48.60
74809;DHT22;63338;39.544;2.596;2022-09-17T13:40:36;34.00;48.70
74809;DHT22;63338;39.544;2.596;2022-09-17T13:45:29;34.10;48.70
74809;DHT22;63338;39.544;2.596;2022-09-17T13:48:07;34.30;48.80
74809;DHT22;63338;39.544;2.596;2022-09-17T13:50:39;34.40;48.40
74809;DHT22;63338;39.544;2.596;2022-09-17T14:01:00;34.90;47.70
74809;DHT22;63338;39.544;2.596;2022-09-17T14:13:55;35.60;46.80
74809;DHT22;63338;39.544;2.596;2022-09-17T14:19:48;35.90;46.80
74809;DHT22;63338;39.544;2.596;2022-09-17T14:22:24;36.10;46.10
74809;DHT22;63338;39.544;2.596;2022-09-17T14:24:53;36.30;46.30
74809;DHT22;63338;39.544;2.596;2022-09-17T14:27:33;36.50;46.10
74809;DHT22;63338;39.544;2.596;2022-09-17T14:35:48;36.90;45.90
74809;DHT22;63338;39.544;2.596;2022-09-17T14:43:39;37.10;45.10
74809;DHT22;63338;39.544;2.596;2022-09-17T14:46:11;37.20;45.10
74809;DHT22;63338;39.544;2.596;2022-09-17T14:48:40;37.30;45.00
74809;DHT22;63338;39.544;2.596;2022-09-17T14:53:49;37.30;44.20
74809;DHT22;63338;39.544;2.596;2022-09-17T14:56:33;37.20;44.80
74809;DHT22;63338;39.544;2.596;2022-09-17T14:59:01;37.10;44.50
74809;DHT22;63338;39.544;2.596;2022-09-17T15:01:29;37.10;44.70
74809;DHT22;63338;39.544;2.596;2022-09-17T15:06:43;37.00;44.90
74809;DHT22;63338;39.544;2.596;2022-09-17T15:09:16;37.10;44.80
74809;DHT22;63338;39.544;2.596;2022-09-17T15:11:44;36.90;45.10
74809;DHT22;63338;39.544;2.596;2022-09-17T15:14:33;37.00;45.00
74809;DHT22;63338;39.544;2.596;2022-09-17T15:17:02;37.00;44.80
74809;DHT22;63338;39.544;2.596;2022-09-17T15:19:33;37.10;44.50
74809;DHT22;63338;39.544;2.596;2022-09-17T15:22:09;36.80;44.70
74809;DHT22;63338;39.544;2.596;2022-09-17T15:29:50;36.70;44.80
74809;DHT22;63338;39.544;2.596;2022-09-17T15:32:16;36.50;44.80
74809;DHT22;63338;39.544;2.596;2022-09-17T15:34:43;36.40;44.90
74809;DHT22;63338;39.544;2.596;2022-09-17T15:37:20;36.20;44.90
74809;DHT22;63338;39.544;2.596;2022-09-17T15:39:48;35.90;44.90
74809;DHT22;63338;39.544;2.596;2022-09-17T15:42:28;35.80;44.90
74809;DHT22;63338;39.544;2.596;2022-09-17T15:45:29;35.60;44.90
74809;DHT22;63338;39.544;2.596;2022-09-17T15:48:02;35.40;45.50
74809;DHT22;63338;39.544;2.596;2022-09-17T15:50:31;35.30;45.30
74809;DHT22;63338;39.544;2.596;2022-09-17T15:53:11;35.10;45.40
74809;DHT22;63338;39.544;2.596;2022-09-17T15:55:43;34.90;45.70
74809;DHT22;63338;39.544;2.596;2022-09-17T15:58:50;34.80;46.10
74809;DHT22;63338;39.544;2.596;2022-09-17T16:08:50;34.30;47.10
74809;DHT22;63338;39.544;2.596;2022-09-17T16:11:19;34.30;47.50
74809;DHT22;63338;39.544;2.596;2022-09-17T16:13:46;34.10;47.50
74809;DHT22;63338;39.544;2.596;2022-09-17T16:16:18;34.10;47.80
74809;DHT22;63338;39.544;2.596;2022-09-17T16:18:45;34.00;47.90
74809;DHT22;63338;39.544;2.596;2022-09-17T16:21:15;33.80;48.20
74809;DHT22;63338;39.544;2.596;2022-09-17T16:23:42;33.90;48.30
74809;DHT22;63338;39.544;2.596;2022-09-17T16:26:15;33.90;48.60
74809;DHT22;63338;39.544;2.596;2022-09-17T16:28:47;33.90;48.30
74809;DHT22;63338;39.544;2.596;2022-09-17T16:31:14;33.90;48.60
74809;DHT22;63338;39.544;2.596;2022-09-17T16:33:40;33.90;48.60
74809;DHT22;63338;39.544;2.596;2022-09-17T16:36:07;33.90;48.40
74809;DHT22;63338;39.544;2.596;2022-09-17T16:38:33;33.90;48.70
74809;DHT22;63338;39.544;2.596;2022-09-17T16:40:59;33.90;48.60
74809;DHT22;63338;39.544;2.596;2022-09-17T16:43:25;33.80;48.30
74809;DHT22;63338;39.544;2.596;2022-09-17T16:46:02;33.80;48.60
74809;DHT22;63338;39.544;2.596;2022-09-17T16:48:29;33.90;48.60
74809;DHT22;63338;39.544;2.596;2022-09-17T16:50:55;33.80;48.60
74809;DHT22;63338;39.544;2.596;2022-09-17T16:53:21;33.80;48.70
74809;DHT22;63338;39.544;2.596;2022-09-17T16:55:47;33.80;48.80
74809;DHT22;63338;39.544;2.596;2022-09-17T16:58:13;33.80;48.70
74809;DHT22;63338;39.544;2.596;2022-09-17T17:00:43;33.70;48.90
74809;DHT22;63338;39.544;2.596;2022-09-17T17:03:14;33.70;48.90
74809;DHT22;63338;39.544;2.596;2022-09-17T17:05:41;33.70;48.80
74809;DHT22;63338;39.544;2.596;2022-09-17T17:08:08;33.60;48.70
74809;DHT22;63338;39.544;2.596;2022-09-17T17:10:37;33.60;48.60
74809;DHT22;63338;39.544;2.596;2022-09-17T17:13:03;33.50;48.80
74809;DHT22;63338;39.544;2.596;2022-09-17T17:15:30;33.40;49.00
74809;DHT22;63338;39.544;2.596;2022-09-17T17:17:56;33.40;48.90
74809;DHT22;63338;39.544;2.596;2022-09-17T17:20:22;33.30;49.00
74809;DHT22;63338;39.544;2.596;2022-09-17T17:22:48;33.20;49.20
74809;DHT22;63338;39.544;2.596;2022-09-17T17:25:17;33.10;49.50
74809;DHT22;63338;39.544;2.596;2022-09-17T17:27:43;33.00;49.40
74809;DHT22;63338;39.544;2.596;2022-09-17T17:30:10;32.90;49.50
74809;DHT22;63338;39.544;2.596;2022-09-17T17:32:42;32.70;49.70
74809;DHT22;63338;39.544;2.596;2022-09-17T17:35:09;32.70;49.90
74809;DHT22;63338;39.544;2.596;2022-09-17T17:37:35;32.50;50.20
74809;DHT22;63338;39.544;2.596;2022-09-17T17:40:02;32.40;50.40
74809;DHT22;63338;39.544;2.596;2022-09-17T17:42:33;32.30;50.30
74809;DHT22;63338;39.544;2.596;2022-09-17T17:45:06;32.20;50.50
74809;DHT22;63338;39.544;2.596;2022-09-17T17:47:32;32.00;50.90
74809;DHT22;63338;39.544;2.596;2022-09-17T17:49:58;31.90;51.10
74809;DHT22;63338;39.544;2.596;2022-09-17T17:52:24;31.80;51.70
74809;DHT22;63338;39.544;2.596;2022-09-17T17:54:50;31.70;51.70
74809;DHT22;63338;39.544;2.596;2022-09-17T17:57:16;31.50;52.10
74809;DHT22;63338;39.544;2.596;2022-09-17T17:59:42;31.30;52.30
74809;DHT22;63338;39.544;2.596;2022-09-17T18:02:09;31.30;52.50
74809;DHT22;63338;39.544;2.596;2022-09-17T18:04:35;31.10;52.50
74809;DHT22;63338;39.544;2.596;2022-09-17T18:07:01;31.00;52.70
74809;DHT22;63338;39.544;2.596;2022-09-17T18:09:27;31.00;52.80
74809;DHT22;63338;39.544;2.596;2022-09-17T18:11:53;30.80;52.90
74809;DHT22;63338;39.544;2.596;2022-09-17T18:14:19;30.70;53.20
74809;DHT22;63338;39.544;2.596;2022-09-17T18:16:45;30.70;53.20
74809;DHT22;63338;39.544;2.596;2022-09-17T18:19:11;30.50;53.60
74809;DHT22;63338;39.544;2.596;2022-09-17T18:21:37;30.40;53.60
74809;DHT22;63338;39.544;2.596;2022-09-17T18:24:04;30.40;53.70
74809;DHT22;63338;39.544;2.596;2022-09-17T18:26:30;30.20;54.00
74809;DHT22;63338;39.544;2.596;2022-09-17T18:28:57;30.10;54.00
74809;DHT22;63338;39.544;2.596;2022-09-17T18:31:25;30.00;54.20
74809;DHT22;63338;39.544;2.596;2022-09-17T18:33:56;29.90;54.10
74809;DHT22;63338;39.544;2.596;2022-09-17T18:36:24;29.90;54.20
74809;DHT22;63338;39.544;2.596;2022-09-17T18:38:54;29.90;54.30
74809;DHT22;63338;39.544;2.596;2022-09-17T18:41:23;29.80;54.50
74809;DHT22;63338;39.544;2.596;2022-09-17T18:43:49;29.70;54.50
74809;DHT22;63338;39.544;2.596;2022-09-17T18:46:15;29.70;54.70
74809;DHT22;63338;39.544;2.596;2022-09-17T18:48:41;29.60;54.80
74809;DHT22;63338;39.544;2.596;2022-09-17T18:51:10;29.50;54.80
74809;DHT22;63338;39.544;2.596;2022-09-17T18:53:37;29.50;54.80
74809;DHT22;63338;39.544;2.596;2022-09-17T18:58:32;29.40;55.00
74809;DHT22;63338;39.544;2.596;2022-09-17T19:00:58;29.30;55.00
74809;DHT22;63338;39.544;2.596;2022-09-17T19:03:24;29.20;55.00
74809;DHT22;63338;39.544;2.596;2022-09-17T19:05:50;29.20;55.10
74809;DHT22;63338;39.544;2.596;2022-09-17T19:08:21;29.20;55.10
74809;DHT22;63338;39.544;2.596;2022-09-17T19:10:50;29.20;55.10
74809;DHT22;63338;39.544;2.596;2022-09-17T19:13:17;29.10;55.20
74809;DHT22;63338;39.544;2.596;2022-09-17T19:15:43;29.10;55.30
74809;DHT22;63338;39.544;2.596;2022-09-17T19:18:09;29.00;56.20
74809;DHT22;63338;39.544;2.596;2022-09-17T19:20:36;29.00;55.90
74809;DHT22;63338;39.544;2.596;2022-09-17T19:23:04;29.00;56.30
74809;DHT22;63338;39.544;2.596;2022-09-17T19:25:30;28.90;56.30
74809;DHT22;63338;39.544;2.596;2022-09-17T19:27:57;28.80;56.30
74809;DHT22;63338;39.544;2.596;2022-09-17T19:30:24;28.80;56.50
74809;DHT22;63338;39.544;2.596;2022-09-17T19:32:50;28.80;56.50
74809;DHT22;63338;39.544;2.596;2022-09-17T19:35:16;28.80;56.50
74809;DHT22;63338;39.544;2.596;2022-09-17T19:37:43;28.60;56.50
74809;DHT22;63338;39.544;2.596;2022-09-17T19:40:09;28.60;56.70
74809;DHT22;63338;39.544;2.596;2022-09-17T19:42:36;28.60;56.50
74809;DHT22;63338;39.544;2.596;2022-09-17T19:45:03;28.50;56.90